createdAt,value
2023-03-26T00:00:05.910Z,6.64
2023-03-26T00:02:34.108Z,6.66
2023-03-26T00:05:05.997Z,6.66
2023-03-26T00:07:34.146Z,6.67
2023-03-26T00:10:03.750Z,6.68
2023-03-26T00:12:31.862Z,6.70
2023-03-26T00:14:59.908Z,6.72
2023-03-26T00:17:29.168Z,6.75
2023-03-26T00:19:57.329Z,6.74
2023-03-26T00:22:25.628Z,6.74
2023-03-26T00:24:53.695Z,6.75
2023-03-26T00:27:23.047Z,6.76
2023-03-26T00:29:51.050Z,6.78
2023-03-26T00:32:19.088Z,6.77
2023-03-26T00:34:47.435Z,6.80
2023-03-26T00:37:15.860Z,6.80
2023-03-26T00:39:49.205Z,6.78
2023-03-26T00:42:17.378Z,6.79
2023-03-26T00:44:46.765Z,6.80
2023-03-26T00:47:15.082Z,6.82
2023-03-26T00:49:46.923Z,6.83
2023-03-26T00:52:14.993Z,6.84
2023-03-26T00:54:43.428Z,6.84
2023-03-26T00:57:16.373Z,6.86
2023-03-26T00:59:53.484Z,6.87
2023-03-26T01:02:21.687Z,6.93
2023-03-26T01:04:57.400Z,7.07
2023-03-26T01:07:29.112Z,7.20
2023-03-26T01:10:01.205Z,7.29
2023-03-26T01:12:33.044Z,7.28
2023-03-26T01:15:04.637Z,7.28
2023-03-26T01:17:34.371Z,7.31
2023-03-26T01:20:13.292Z,7.35
2023-03-26T01:22:45.785Z,7.40
2023-03-26T01:25:15.288Z,7.37
2023-03-26T01:27:48.111Z,7.36
2023-03-26T01:30:25.433Z,7.31
2023-03-26T01:33:02.502Z,7.22
2023-03-26T01:35:47.000Z,7.15
2023-03-26T01:38:29.200Z,7.11
2023-03-26T01:41:05.797Z,7.06
2023-03-26T01:43:40.797Z,7.04
2023-03-26T01:46:12.641Z,7.04
2023-03-26T01:48:43.337Z,7.04
2023-03-26T01:51:13.204Z,7.03
2023-03-26T01:53:45.175Z,7.03
2023-03-26T01:56:20.604Z,7.01
2023-03-26T01:59:02.991Z,7.00
2023-03-26T02:01:37.588Z,7.00
2023-03-26T02:04:14.196Z,6.97
2023-03-26T02:06:47.427Z,6.91
2023-03-26T02:09:22.459Z,6.83
2023-03-26T02:11:52.703Z,6.78
2023-03-26T02:14:21.828Z,6.72
2023-03-26T02:16:51.553Z,6.71
2023-03-26T02:19:22.063Z,6.68
2023-03-26T02:21:51.603Z,6.58
2023-03-26T02:24:20.588Z,6.53
2023-03-26T02:26:50.091Z,6.45
2023-03-26T02:29:20.643Z,6.40
2023-03-26T02:31:49.685Z,6.37
2023-03-26T02:34:17.904Z,6.35
2023-03-26T02:36:46.026Z,6.35
2023-03-26T02:39:14.441Z,6.36
2023-03-26T02:41:42.713Z,6.34
2023-03-26T02:44:10.782Z,6.35
2023-03-26T02:46:40.280Z,6.45
2023-03-26T02:49:08.673Z,6.57
2023-03-26T02:51:37.642Z,6.68
2023-03-26T02:54:07.223Z,6.71
2023-03-26T02:56:35.779Z,6.69
2023-03-26T02:59:03.914Z,6.67
2023-03-26T03:01:35.035Z,6.68
2023-03-26T03:04:05.291Z,6.76
2023-03-26T03:06:33.313Z,6.87
2023-03-26T03:09:02.815Z,7.01
2023-03-26T03:11:30.872Z,7.11
2023-03-26T03:13:58.899Z,7.17
2023-03-26T03:16:27.228Z,7.24
2023-03-26T03:18:57.897Z,7.29
2023-03-26T03:21:29.184Z,7.36
2023-03-26T03:24:00.162Z,7.40
2023-03-26T03:26:29.960Z,7.46
2023-03-26T03:29:00.502Z,7.51
2023-03-26T03:31:28.625Z,7.54
2023-03-26T03:33:57.225Z,7.57
2023-03-26T03:36:27.817Z,7.61
2023-03-26T03:39:02.389Z,7.66
2023-03-26T03:41:30.820Z,7.70
2023-03-26T03:43:59.937Z,7.72
2023-03-26T03:46:28.125Z,7.77
2023-03-26T03:48:56.597Z,7.79
2023-03-26T03:51:25.980Z,7.79
2023-03-26T03:53:55.977Z,7.81
2023-03-26T03:56:26.237Z,7.82
2023-03-26T03:58:54.292Z,7.79
2023-03-26T04:01:23.633Z,7.75
2023-03-26T04:03:54.138Z,7.65
2023-03-26T04:06:22.196Z,7.59
2023-03-26T04:08:50.203Z,7.51
2023-03-26T04:11:18.351Z,7.48
2023-03-26T04:13:47.731Z,7.44
2023-03-26T04:16:17.579Z,7.45
2023-03-26T04:18:47.163Z,7.47
2023-03-26T04:21:16.016Z,7.51
2023-03-26T04:23:47.529Z,7.59
2023-03-26T04:26:20.154Z,7.66
2023-03-26T04:28:54.952Z,7.67
2023-03-26T04:31:29.270Z,7.68
2023-03-26T04:34:01.650Z,7.69
2023-03-26T04:36:32.263Z,7.67
2023-03-26T04:39:04.981Z,7.65
2023-03-26T04:41:33.357Z,7.65
2023-03-26T04:44:05.633Z,7.64
2023-03-26T04:46:35.125Z,7.66
2023-03-26T04:49:04.420Z,7.66
2023-03-26T04:51:39.575Z,7.68
2023-03-26T04:54:08.478Z,7.66
2023-03-26T04:56:46.693Z,7.61
2023-03-26T04:59:27.371Z,7.55
2023-03-26T05:01:55.421Z,7.54
2023-03-26T05:04:23.546Z,7.51
2023-03-26T05:06:52.089Z,7.48
2023-03-26T05:09:20.793Z,7.43
2023-03-26T05:11:53.109Z,7.41
2023-03-26T05:14:22.507Z,7.37
2023-03-26T05:16:53.372Z,7.35
2023-03-26T05:19:21.458Z,7.33
2023-03-26T05:21:49.671Z,7.29
2023-03-26T05:24:19.732Z,7.23
2023-03-26T05:26:47.770Z,7.19
2023-03-26T05:29:18.382Z,7.15
2023-03-26T05:31:49.132Z,7.13
2023-03-26T05:34:17.410Z,7.11
2023-03-26T05:36:45.540Z,7.09
2023-03-26T05:39:14.293Z,7.08
2023-03-26T05:41:46.921Z,7.02
2023-03-26T05:44:14.898Z,6.96
2023-03-26T05:46:42.888Z,6.97
2023-03-26T05:49:12.290Z,7.00
2023-03-26T05:51:40.534Z,7.06
2023-03-26T05:54:08.589Z,7.06
2023-03-26T05:56:39.566Z,6.98
2023-03-26T05:59:08.069Z,6.88
2023-03-26T06:01:36.445Z,6.82
2023-03-26T06:04:06.943Z,6.77
2023-03-26T06:06:36.562Z,6.82
2023-03-26T06:09:05.184Z,6.85
2023-03-26T06:11:33.269Z,6.83
2023-03-26T06:14:01.578Z,6.78
2023-03-26T06:16:29.628Z,6.77
2023-03-26T06:18:58.454Z,6.85
2023-03-26T06:21:26.980Z,6.95
2023-03-26T06:23:59.608Z,7.02
2023-03-26T06:38:47.709Z,7.41
2023-03-26T07:48:33.216Z,8.27
2023-03-26T09:47:16.561Z,7.99
2023-03-26T09:50:07.151Z,7.83
2023-03-26T09:52:57.272Z,7.80
2023-03-26T09:56:05.171Z,7.66
2023-03-26T11:52:24.576Z,9.04
2023-03-26T11:55:19.902Z,9.06
2023-03-26T11:58:18.013Z,9.23
2023-03-26T12:01:14.112Z,9.60
2023-03-26T12:06:55.097Z,10.11
2023-03-26T12:16:16.700Z,10.98
2023-03-26T12:19:19.649Z,11.00
2023-03-26T12:27:42.515Z,10.41
2023-03-26T12:30:28.256Z,10.21
2023-03-26T12:33:14.330Z,10.33
2023-03-26T12:35:44.792Z,10.41
2023-03-26T12:43:53.486Z,10.92
2023-03-26T12:44:51.665Z,11.11
2023-03-26T12:48:00.709Z,10.87
2023-03-26T12:50:56.398Z,10.65
2023-03-26T12:53:59.962Z,10.74
2023-03-26T13:00:00.900Z,10.73
2023-03-26T13:02:37.755Z,10.75
2023-03-26T13:05:19.763Z,10.61
2023-03-26T13:07:58.657Z,10.63
2023-03-26T13:10:31.710Z,10.59
2023-03-26T13:13:08.739Z,10.65
2023-03-26T13:15:38.850Z,10.74
2023-03-26T13:18:15.079Z,10.85
2023-03-26T13:20:50.635Z,10.80
2023-03-26T13:23:24.582Z,10.76
2023-03-26T13:25:56.786Z,10.77
2023-03-26T13:28:31.013Z,10.88
2023-03-26T13:31:04.943Z,11.09
2023-03-26T13:33:40.275Z,11.43
2023-03-26T13:36:23.333Z,11.68
2023-03-26T13:39:07.941Z,11.71
2023-03-26T13:41:45.592Z,11.83
2023-03-26T13:44:17.374Z,11.84
2023-03-26T13:46:47.406Z,11.90
2023-03-26T13:49:17.073Z,12.06
2023-03-26T13:51:46.702Z,12.13
2023-03-26T13:54:23.084Z,12.08
2023-03-26T13:56:53.880Z,12.24
2023-03-26T13:59:24.224Z,12.40
2023-03-26T14:01:55.208Z,12.26
2023-03-26T14:04:25.051Z,12.15
2023-03-26T14:06:57.670Z,11.89
2023-03-26T14:09:32.161Z,11.61
2023-03-26T14:12:21.101Z,11.51
2023-03-26T14:14:54.590Z,11.31
2023-03-26T14:17:31.818Z,11.18
2023-03-26T14:20:11.781Z,11.07
2023-03-26T14:22:47.555Z,11.08
2023-03-26T14:25:23.676Z,11.37
2023-03-26T14:28:12.716Z,11.46
2023-03-26T14:30:58.503Z,11.79
2023-03-26T14:33:44.363Z,12.09
2023-03-26T14:36:16.134Z,12.10
2023-03-26T14:38:59.258Z,12.11
2023-03-26T14:41:31.292Z,12.02
2023-03-26T14:44:18.171Z,12.08
2023-03-26T14:47:04.677Z,11.95
2023-03-26T14:49:56.778Z,12.00
2023-03-26T14:52:29.885Z,12.14
2023-03-26T14:54:59.954Z,12.35
2023-03-26T14:57:39.857Z,12.31
2023-03-26T15:00:33.763Z,12.25
2023-03-26T15:03:21.616Z,12.30
2023-03-26T15:06:00.245Z,12.51
2023-03-26T15:08:46.007Z,12.76
2023-03-26T15:11:24.843Z,12.92
2023-03-26T15:15:05.698Z,12.90
2023-03-26T15:18:11.436Z,13.09
2023-03-26T15:21:20.552Z,13.23
2023-03-26T15:24:11.288Z,13.04
2023-03-26T15:51:10.066Z,11.71
2023-03-26T15:53:53.484Z,11.70
2023-03-26T15:56:39.940Z,11.60
2023-03-26T15:59:41.973Z,11.58
2023-03-26T16:02:43.862Z,11.57
2023-03-26T16:06:07.637Z,11.41
2023-03-26T16:08:46.969Z,11.32
2023-03-26T16:11:16.272Z,11.26
2023-03-26T16:13:46.358Z,11.13
2023-03-26T16:16:47.123Z,10.93
2023-03-26T16:19:36.299Z,10.92
2023-03-26T16:22:06.169Z,10.86
2023-03-26T16:24:35.321Z,10.83
2023-03-26T16:27:25.949Z,10.72
2023-03-26T16:30:20.157Z,10.62
2023-03-26T16:32:49.966Z,10.43
2023-03-26T16:35:37.201Z,10.35
2023-03-26T16:38:10.766Z,10.28
2023-03-26T16:40:51.174Z,10.20
2023-03-26T16:43:34.102Z,10.19
2023-03-26T16:46:05.385Z,10.10
2023-03-26T16:48:36.629Z,10.10
2023-03-26T16:51:08.852Z,10.12
2023-03-26T16:53:44.153Z,10.11
2023-03-26T16:56:17.981Z,10.12
2023-03-26T16:58:54.271Z,10.12
2023-03-26T17:01:27.607Z,10.10
2023-03-26T17:03:57.075Z,10.07
2023-03-26T17:06:32.034Z,10.09
2023-03-26T17:09:07.527Z,10.11
2023-03-26T17:11:48.386Z,10.06
2023-03-26T17:14:26.860Z,10.00
2023-03-26T17:17:08.088Z,9.93
2023-03-26T17:19:40.888Z,9.86
2023-03-26T17:22:12.979Z,9.78
2023-03-26T17:24:45.746Z,9.72
2023-03-26T17:27:24.039Z,9.66
2023-03-26T17:30:00.499Z,9.67
2023-03-26T17:32:43.518Z,9.63
2023-03-26T17:35:13.918Z,9.58
2023-03-26T17:37:46.049Z,9.54
2023-03-26T17:40:38.351Z,9.55
2023-03-26T17:43:11.224Z,9.53
2023-03-26T17:45:40.457Z,9.52
2023-03-26T17:48:11.628Z,9.51
2023-03-26T17:50:44.522Z,9.54
2023-03-26T17:53:18.290Z,9.52
2023-03-26T17:55:46.769Z,9.40
2023-03-26T17:58:35.535Z,9.40
2023-03-26T18:01:14.658Z,9.44
2023-03-26T18:03:46.587Z,9.45
2023-03-26T18:06:15.874Z,9.42
2023-03-26T18:08:51.226Z,9.36
2023-03-26T18:11:50.973Z,9.30
2023-03-26T18:14:42.476Z,9.25
2023-03-26T18:17:12.905Z,9.22
2023-03-26T18:19:48.740Z,9.19
2023-03-26T18:22:20.089Z,9.18
2023-03-26T18:24:48.967Z,9.18
2023-03-26T18:27:17.868Z,9.11
2023-03-26T18:29:47.673Z,9.04
2023-03-26T18:32:31.056Z,9.01
2023-03-26T18:34:59.778Z,9.00
2023-03-26T18:37:29.550Z,8.91
2023-03-26T18:39:59.085Z,8.85
2023-03-26T18:42:28.285Z,8.79
2023-03-26T18:44:59.855Z,8.74
2023-03-26T18:47:38.636Z,8.68
2023-03-26T18:50:07.350Z,8.61
2023-03-26T18:52:35.404Z,8.54
2023-03-26T18:55:04.388Z,8.48
2023-03-26T18:57:32.984Z,8.40
2023-03-26T19:00:10.960Z,8.29
2023-03-26T19:02:40.594Z,8.17
2023-03-26T19:05:11.257Z,8.05
2023-03-26T19:07:39.238Z,7.90
2023-03-26T19:10:08.787Z,7.77
2023-03-26T19:12:37.671Z,7.63
2023-03-26T19:15:07.878Z,7.52
2023-03-26T19:17:39.705Z,7.43
2023-03-26T19:20:15.025Z,7.35
2023-03-26T19:22:44.753Z,7.26
2023-03-26T19:25:22.159Z,7.17
2023-03-26T19:27:50.723Z,7.08
2023-03-26T19:30:28.480Z,7.01
2023-03-26T19:33:12.233Z,6.90
2023-03-26T19:35:44.585Z,6.83
2023-03-26T19:38:26.153Z,6.78
2023-03-26T19:40:55.908Z,6.74
2023-03-26T19:43:24.648Z,6.71
2023-03-26T19:45:59.606Z,6.65
2023-03-26T19:48:46.219Z,6.61
2023-03-26T19:51:21.625Z,6.55
2023-03-26T19:53:51.259Z,6.51
2023-03-26T19:56:20.976Z,6.47
2023-03-26T19:58:50.406Z,6.42
2023-03-26T20:01:21.441Z,6.36
2023-03-26T20:03:52.943Z,6.29
2023-03-26T20:06:30.710Z,6.24
2023-03-26T20:09:02.281Z,6.19
2023-03-26T20:11:33.745Z,6.14
2023-03-26T20:14:02.456Z,6.13
2023-03-26T20:16:31.924Z,6.09
2023-03-26T20:19:04.852Z,6.03
2023-03-26T20:21:38.176Z,5.98
2023-03-26T20:24:17.851Z,5.91
2023-03-26T20:26:46.327Z,5.87
2023-03-26T20:29:14.880Z,5.81
2023-03-26T20:31:43.423Z,5.75
2023-03-26T20:34:15.743Z,5.71
2023-03-26T20:36:45.650Z,5.64
2023-03-26T20:39:13.944Z,5.58
2023-03-26T20:41:45.033Z,5.52
2023-03-26T20:44:15.734Z,5.47
2023-03-26T20:46:44.230Z,5.42
2023-03-26T20:49:12.527Z,5.35
2023-03-26T20:51:42.298Z,5.29
2023-03-26T20:54:14.951Z,5.25
2023-03-26T20:56:43.272Z,5.23
2023-03-26T20:59:11.971Z,5.21
2023-03-26T21:01:39.942Z,5.18
2023-03-26T21:04:07.966Z,5.13
2023-03-26T21:06:35.914Z,5.08
2023-03-26T21:09:04.193Z,5.03
2023-03-26T21:11:41.077Z,5.01
2023-03-26T21:14:10.946Z,4.97
2023-03-26T21:16:39.719Z,4.95
2023-03-26T21:19:07.899Z,4.90
2023-03-26T21:21:47.672Z,4.86
2023-03-26T21:24:23.995Z,4.83
2023-03-26T21:26:58.073Z,4.81
2023-03-26T21:29:26.365Z,4.78
2023-03-26T21:31:55.396Z,4.73
2023-03-26T21:34:24.159Z,4.68
2023-03-26T21:36:52.887Z,4.65
2023-03-26T21:39:21.192Z,4.61
2023-03-26T21:42:04.951Z,4.58
2023-03-26T21:44:36.056Z,4.56
2023-03-26T21:47:04.624Z,4.53
2023-03-26T21:49:33.954Z,4.50
2023-03-26T21:52:02.573Z,4.49
2023-03-26T21:54:31.379Z,4.46
2023-03-26T21:57:04.560Z,4.43
2023-03-26T21:59:36.411Z,4.39
2023-03-26T22:02:08.468Z,4.36
2023-03-26T22:04:37.964Z,4.31
2023-03-26T22:07:11.402Z,4.29
2023-03-26T22:09:39.861Z,4.25
2023-03-26T22:12:07.881Z,4.21
2023-03-26T22:14:36.210Z,4.20
2023-03-26T22:17:06.070Z,4.16
2023-03-26T22:19:34.789Z,4.13
2023-03-26T22:22:03.247Z,4.08
2023-03-26T22:24:31.484Z,4.03
2023-03-26T22:26:59.919Z,4.00
2023-03-26T22:29:30.793Z,3.94
2023-03-26T22:31:58.709Z,3.90
2023-03-26T22:34:28.133Z,3.85
2023-03-26T22:36:56.358Z,3.81
2023-03-26T22:39:24.500Z,3.78
2023-03-26T22:41:52.713Z,3.76
2023-03-26T22:44:20.816Z,3.75
2023-03-26T22:46:51.717Z,3.74
2023-03-26T22:49:20.018Z,3.71
2023-03-26T22:51:50.497Z,3.69
2023-03-26T22:54:18.491Z,3.69
2023-03-26T22:56:47.009Z,3.68
2023-03-26T22:59:17.276Z,3.67
2023-03-26T23:01:45.998Z,3.65
2023-03-26T23:04:31.540Z,3.61
2023-03-26T23:07:01.867Z,3.60
2023-03-26T23:09:29.785Z,3.56
2023-03-26T23:11:57.666Z,3.56
2023-03-26T23:14:25.866Z,3.53
2023-03-26T23:16:53.760Z,3.51
2023-03-26T23:19:21.885Z,3.50
2023-03-26T23:21:49.827Z,3.47
2023-03-26T23:24:19.277Z,3.45
2023-03-26T23:26:51.136Z,3.42
2023-03-26T23:29:19.632Z,3.40
2023-03-26T23:31:48.383Z,3.35
2023-03-26T23:34:17.288Z,3.30
2023-03-26T23:36:45.681Z,3.25
2023-03-26T23:39:13.712Z,3.22
2023-03-26T23:41:43.939Z,3.19
2023-03-26T23:44:13.724Z,3.17
2023-03-26T23:46:42.869Z,3.17
2023-03-26T23:49:12.247Z,3.13
2023-03-26T23:51:40.564Z,3.10
2023-03-26T23:54:08.953Z,3.08
2023-03-26T23:56:37.016Z,3.04
2023-03-26T23:59:10.387Z,3.02
